METAR Reports From Nearby Airports

 

KLUD - Decatur, Texas, USA
Distance from Wildwood: ESE 5mi, 8km
Updated: Oct 24, 2021 5:35pm
Clear
Clear
 Wind from SSW
Wind: SSW 8 mph , 13 km/h
Temperature: 88°F , 31°C
Heat Index: 90°F , 32°C
Dew Point: 64°F , 18°C
Humidity: 46%
Barometer: 29.76 inHg , 1007.8 hPa
Clouds: Clear
Visibility: 10 miles , 16 km
2021/10/24 22:35 KLUD 242235Z AUTO 20007KT 10SM CLR 31/18 A2976 RMK AO2 T03060175
KXBP - Bridgeport, Texas, USA
Distance from Wildwood: WSW 11mi, 18km
Updated: Oct 24, 2021 5:35pm
Clear
Clear
 Wind from WNW
Wind: WNW 5 mph , 7 km/h
Temperature: 90°F , 32°C
Dew Point: 50°F , 10°C
Humidity: 26%
Barometer: 29.76 inHg , 1007.8 hPa
Clouds: Clear
Visibility: 10 miles , 16 km
2021/10/24 22:35 KXBP 242235Z AUTO 30004KT 10SM CLR 32/10 A2976 RMK AO2 T03150097
 
K0F2 - Bowie, Texas, USA
Distance from Wildwood: NNW 24mi, 39km
Updated: Oct 24, 2021 5:35pm
Clear
Clear
 Wind from NNW
Wind: NNW 14 mph , 22 km/h, Gust: 17 mph , 28 km/h
Temperature: 84°F , 29°C
Dew Point: 45°F , 7°C
Humidity: 25%
Barometer: 29.78 inHg , 1008.5 hPa
Clouds: Clear
Visibility: 10 miles , 16 km
2021/10/24 22:35 K0F2 242235Z AUTO 33012G15KT 10SM CLR 29/07 A2978 RMK AO2 T02900071
KDTO - Denton, Texas, USA
Distance from Wildwood: E 27mi, 44km
Updated: Oct 24, 2021 5:53pm
Clear
Clear
 Wind from SSE
Wind: SSE 18 mph , 30 km/h
Temperature: 84°F , 29°C
Heat Index: 87°F , 31°C
Dew Point: 68°F , 20°C
Humidity: 58%
Barometer: 29.75 inHg , 1007.5 hPa
Clouds: Clear
Visibility: 10 miles , 16 km
2021/10/24 22:53 KDTO 242253Z 16016KT 10SM CLR 29/20 A2975 RMK AO2 SLP065 T02890200 $
 
KAFW - Ft Worth/Allianc, Texas, USA
Distance from Wildwood: SE 29mi, 46km
Updated: Oct 24, 2021 5:53pm
Few Clouds
Few Clouds
 Wind from S
Wind: S 18 mph , 30 km/h
Temperature: 84°F , 29°C
Heat Index: 87°F , 31°C
Dew Point: 68°F , 20°C
Humidity: 58%
Barometer: 29.74 inHg , 1007.1 hPa
Clouds: Few Clouds
Visibility: 10 miles , 16 km
Cloud details: Few Clouds 5500 ft
Few Clouds 25000 ft
2021/10/24 22:53 KAFW 242253Z 17016KT 10SM FEW055 FEW250 29/20 A2974 RMK AO2 SLP058 T02940200
KFTW - Fort Worth, Texas, USA
Distance from Wildwood: SSE 34mi, 55km
Updated: Oct 24, 2021 5:53pm
Clear
Clear
 Wind from S
Wind: S 13 mph , 20 km/h
Temperature: 84°F , 29°C
Heat Index: 86°F , 30°C
Dew Point: 66°F , 19°C
Humidity: 55%
Barometer: 29.75 inHg , 1007.5 hPa
Clouds: Clear
Visibility: 10 miles , 16 km
2021/10/24 22:53 KFTW 242253Z 17011KT 10SM CLR 29/19 A2975 RMK AO2 SLP064 T02890194
 
KNFW - Fort Worth Nas, Texas, USA
Distance from Wildwood: SSE 36mi, 58km
Updated: Oct 24, 2021 5:52pm
Clear
Clear
 Wind from S
Wind: S 15 mph , 24 km/h
Temperature: 86°F , 30°C
Heat Index: 89°F , 32°C
Dew Point: 68°F , 20°C
Humidity: 55%
Barometer: 29.75 inHg , 1007.5 hPa
Clouds: Clear
Visibility: 10 miles , 16 km
2021/10/24 22:52 KNFW 242252Z AUTO 17013KT 10SM CLR 30/20 A2975 RMK AO2 SLP060 T03000200 $
KGLE - Gainesville, Texas, USA
Distance from Wildwood: NE 38mi, 61km
Updated: Oct 24, 2021 5:35pm
Mostly Cloudy
Mostly Cloudy
 Wind from W
Wind: W 7 mph , 11 km/h, Gust: 10 mph , 17 km/h
Temperature: 82°F , 28°C
Heat Index: 84°F , 29°C
Dew Point: 66°F , 19°C
Humidity: 58%
Barometer: 29.78 inHg , 1008.5 hPa
Clouds: Mostly Cloudy
Visibility: 10 miles , 16 km
Cloud details: Partly Cloudy 4100 ft
Mostly Cloudy 6000 ft
Mostly Cloudy 7000 ft
2021/10/24 22:35 KGLE 242235Z AUTO 28006G09KT 10SM SCT041 BKN060 BKN070 28/19 A2978 RMK AO2 T02800190 PWINO
 
KMWL - Mineral Wells, Texas, USA
Distance from Wildwood: SW 41mi, 65km
Updated: Oct 24, 2021 5:53pm
Clear
Clear
 Wind from SSW
Wind: SSW 6 mph , 9 km/h
Temperature: 88°F , 31°C
Heat Index: 88°F , 31°C
Dew Point: 61°F , 16°C
Humidity: 40%
Barometer: 29.74 inHg , 1007.1 hPa
Clouds: Clear
Visibility: 10 miles , 16 km
2021/10/24 22:53 KMWL 242253Z AUTO 21005KT 10SM CLR 31/16 A2974 RMK AO2 SLP058 T03060161 $
KDFW - Dallas/Ft Worth, Texas, USA
Distance from Wildwood: ESE 45mi, 73km
Updated: Oct 24, 2021 5:53pm
Few Clouds
Few Clouds
 Wind from S
Wind: S 14 mph , 22 km/h, Gust: 24 mph , 39 km/h
Temperature: 84°F , 29°C
Heat Index: 86°F , 30°C
Dew Point: 66°F , 19°C
Humidity: 55%
Barometer: 29.75 inHg , 1007.5 hPa
Clouds: Few Clouds
Visibility: 10 miles , 16 km
Cloud details: Few Clouds 4500 ft
Few Clouds 25000 ft
2021/10/24 22:53 KDFW 242253Z 18012G21KT 10SM FEW045 FEW250 29/19 A2975 RMK AO2 SLP064 CB DSNT NW-NE MOV E T02890189